Terminal Aerodrome Forecast
Issued by NWS Billings, MT

Home | Current Version | Previous Version | Text Only | Print | Product List | Glossary Off
Versions: 1 2 3 4 5 6 7 8 9 10 11 12 13 14 15 16 17 18 19 20 21 22 23 24 25 26 27 28 29 30 31 32 33 34 35 36 37 38 39 40 41 42 43 44 45 46 47 48 49 50

000
FTUS45 KBYZ 240529
TAFMLS
TAF
KMLS 240529Z 2406/2506 VRB06KT 2SM BR OVC003
     FM240900 35006KT 3SM BR VCSH BKN004 OVC007
     FM241500 30009KT P6SM BKN007 OVC015
     FM242100 30007KT P6SM SCT015 BKN025=

USA.gov is the U.S. government's official web portal to all federal, state and local government web resources and services.